Time;durP1;ratioP1;P1;durP2;ratioP2;P2;SDS_P1;SDS_P2;PMS_P1;PMS_P2;Temp;Humidity;BMP_temperature;BMP_pressure;BME280_temperature;BME280_humidity;BME280_pressure;Samples;Min_cycle;Max_cycle;Signal;HPM_P1;HPM_P2
2021/01/15 02:46:53;;;;;;;;;;;5.00;71.50;;;;;;4938466;28;116937;-90
2021/01/15 02:50:11;;;;;;;;;;;5.00;71.50;;;;;;4924094;28;117636;-90
2021/01/15 02:59:49;;;;;;;;;;;5.00;71.40;;;;;;4924828;28;117251;-90
2021/01/15 03:03:12;;;;;;;;;;;5.00;71.40;;;;;;4904189;28;117676;-90
2021/01/15 03:06:07;;;;;;;;;;;5.00;71.40;;;;;;4904485;28;118219;-90
2021/01/15 03:09:09;;;;;;;;;;;5.00;71.20;;;;;;4904955;28;116871;-90
2021/01/15 03:12:13;;;;;;;;;;;5.00;71.20;;;;;;4905602;28;117747;-90
2021/01/15 03:15:24;;;;;;;;;;;5.00;71.30;;;;;;4901844;28;117827;-90
2021/01/15 03:18:42;;;;;;;;;;;5.00;71.20;;;;;;4899695;28;117769;-91
2021/01/15 03:25:15;;;;;;;;;;;5.00;71.10;;;;;;4886475;28;116789;-90
2021/01/15 03:31:23;;;;;;;;;;;5.00;71.10;;;;;;4882879;28;117417;-90
2021/01/15 03:34:15;;;;;;;;;;;5.00;71.10;;;;;;4875178;28;117671;-90
2021/01/15 03:36:45;;;;;;;;;;;5.00;71.10;;;;;;4885576;28;117793;-91
2021/01/15 03:39:15;;;;;;;;;;;5.00;71.10;;;;;;4875617;28;117861;-90
2021/01/15 03:41:45;;;;;;;;;;;5.00;70.90;;;;;;4888499;28;117740;-90
2021/01/15 03:44:16;;;;;;;;;;;5.00;71.10;;;;;;4923252;28;117227;-90
2021/01/15 03:47:03;;;;;;;;;;;5.00;71.00;;;;;;4938911;28;117587;-90
2021/01/15 03:49:35;;;;;;;;;;;5.00;71.00;;;;;;4924126;28;117609;-90
2021/01/15 03:52:13;;;;;;;;;;;5.00;71.00;;;;;;4924329;28;116945;-90
2021/01/15 03:54:40;;;;;;;;;;;5.00;71.00;;;;;;4924504;28;117292;-90
2021/01/15 03:57:11;;;;;;;;;;;5.00;70.90;;;;;;4940322;28;117439;-90
2021/01/15 03:59:41;;;;;;;;;;;5.00;70.90;;;;;;4924334;28;117557;-90
2021/01/15 04:02:13;;;;;;;;;;;5.00;70.90;;;;;;4924255;28;117022;-90
2021/01/15 04:04:59;;;;;;;;;;;5.00;70.80;;;;;;4926110;28;117199;-90
2021/01/15 04:07:29;;;;;;;;;;;5.00;70.70;;;;;;4926328;28;117950;-90
2021/01/15 04:10:07;;;;;;;;;;;5.00;70.70;;;;;;4923950;28;117669;-90
2021/01/15 04:12:40;;;;;;;;;;;5.00;70.70;;;;;;4926919;28;117344;-90
2021/01/15 04:15:28;;;;;;;;;;;5.00;70.70;;;;;;4940630;28;117599;-90
2021/01/15 04:18:05;;;;;;;;;;;5.00;70.80;;;;;;4940479;28;117463;-90
2021/01/15 04:20:49;;;;;;;;;;;5.00;70.70;;;;;;4923930;28;117754;-90
2021/01/15 04:23:20;;;;;;;;;;;4.90;70.70;;;;;;4924929;28;117183;-90
2021/01/15 04:25:50;;;;;;;;;;;5.00;70.70;;;;;;4924931;28;116591;-90
2021/01/15 04:28:18;;;;;;;;;;;4.90;70.70;;;;;;4925151;28;116893;-90
2021/01/15 04:30:44;;;;;;;;;;;4.90;70.70;;;;;;4923811;28;117627;-90
2021/01/15 04:33:11;;;;;;;;;;;4.90;70.70;;;;;;4923773;28;117430;-90
2021/01/15 04:35:38;;;;;;;;;;;4.90;70.70;;;;;;4924680;28;117567;-90
2021/01/15 04:38:05;;;;;;;;;;;5.00;70.70;;;;;;4924400;28;116914;-90
2021/01/15 04:40:31;;;;;;;;;;;4.90;70.70;;;;;;4923878;28;117797;-90
2021/01/15 04:43:00;;;;;;;;;;;4.90;70.70;;;;;;4921928;28;117205;-90
2021/01/15 04:45:49;;;;;;;;;;;4.90;70.70;;;;;;4924036;28;117588;-90
2021/01/15 04:48:18;;;;;;;;;;;4.90;70.60;;;;;;4924285;28;117386;-90
2021/01/15 04:50:45;;;;;;;;;;;4.90;70.70;;;;;;4923393;28;117962;-90
2021/01/15 04:53:11;;;;;;;;;;;4.90;70.70;;;;;;4923456;28;117522;-90
2021/01/15 04:55:41;;;;;;;;;;;4.90;70.60;;;;;;4940185;28;116691;-90
2021/01/15 04:58:16;;;;;;;;;;;4.90;70.70;;;;;;4939825;28;117314;-90
2021/01/15 05:00:43;;;;;;;;;;;4.90;70.40;;;;;;4923471;28;118907;-90
2021/01/15 05:03:10;;;;;;;;;;;4.90;70.60;;;;;;4923373;28;117613;-90
2021/01/15 05:05:43;;;;;;;;;;;4.90;70.40;;;;;;4923900;28;116631;-90
2021/01/15 05:08:16;;;;;;;;;;;4.90;70.40;;;;;;4923633;28;117580;-90
2021/01/15 05:10:45;;;;;;;;;;;4.90;70.30;;;;;;4922436;28;117571;-90
2021/01/15 05:13:15;;;;;;;;;;;4.90;70.30;;;;;;4923176;28;116848;-90
2021/01/15 05:15:43;;;;;;;;;;;4.90;70.50;;;;;;4923691;28;117511;-90
2021/01/15 05:18:12;;;;;;;;;;;4.90;70.40;;;;;;4924109;28;117691;-90
2021/01/15 05:20:39;;;;;;;;;;;4.90;70.30;;;;;;4923007;28;119031;-90
2021/01/15 05:23:05;;;;;;;;;;;4.90;70.40;;;;;;4922959;28;117422;-90
2021/01/15 05:25:32;;;;;;;;;;;4.90;70.30;;;;;;4923817;28;117333;-90
2021/01/15 05:28:02;;;;;;;;;;;4.90;70.20;;;;;;4939817;28;117536;-90
2021/01/15 05:30:32;;;;;;;;;;;4.90;70.30;;;;;;4922885;28;117528;-90
2021/01/15 05:33:03;;;;;;;;;;;4.90;70.40;;;;;;4922673;28;117207;-90
2021/01/15 05:35:42;;;;;;;;;;;4.90;70.30;;;;;;4923711;28;117565;-90
2021/01/15 05:38:09;;;;;;;;;;;4.90;70.30;;;;;;4923390;28;117674;-90
2021/01/15 05:40:56;;;;;;;;;;;4.90;70.30;;;;;;4922966;28;117506;-90
2021/01/15 05:43:31;;;;;;;;;;;4.90;70.20;;;;;;4938543;28;117319;-90
2021/01/15 05:46:17;;;;;;;;;;;4.90;70.30;;;;;;4922874;28;116637;-90
2021/01/15 05:48:45;;;;;;;;;;;4.90;70.40;;;;;;4923447;28;117447;-90
2021/01/15 05:51:29;;;;;;;;;;;4.90;70.20;;;;;;4922864;28;117611;-90
2021/01/15 05:54:34;;;;;;;;;;;4.90;70.30;;;;;;4937488;28;117481;-90
2021/01/15 05:57:00;;;;;;;;;;;4.90;70.20;;;;;;4923322;28;117318;-90
2021/01/15 05:59:53;;;;;;;;;;;4.90;70.00;;;;;;4924385;28;116895;-90
2021/01/15 06:02:21;;;;;;;;;;;4.90;70.20;;;;;;4922517;28;117570;-90
2021/01/15 06:04:48;;;;;;;;;;;4.90;70.20;;;;;;4922611;28;117339;-90
2021/01/15 06:07:14;;;;;;;;;;;4.90;70.10;;;;;;4923284;28;116735;-90
2021/01/15 06:09:41;;;;;;;;;;;4.90;70.00;;;;;;4923599;28;117600;-90
2021/01/15 06:12:08;;;;;;;;;;;4.90;70.10;;;;;;4922551;28;117670;-90
2021/01/15 06:14:34;;;;;;;;;;;4.90;70.00;;;;;;4922517;28;116937;-90
2021/01/15 06:17:04;;;;;;;;;;;4.90;70.20;;;;;;4923298;28;117540;-90
2021/01/15 06:19:44;;;;;;;;;;;4.90;70.00;;;;;;4923615;28;117494;-90
2021/01/15 06:22:29;;;;;;;;;;;4.90;70.00;;;;;;4925737;28;117348;-90
2021/01/15 06:25:13;;;;;;;;;;;4.90;70.00;;;;;;4925522;28;117424;-90
2021/01/15 06:27:40;;;;;;;;;;;4.90;70.00;;;;;;4926137;28;117315;-90
2021/01/15 06:30:08;;;;;;;;;;;4.90;70.00;;;;;;4927141;28;117015;-90
2021/01/15 06:32:34;;;;;;;;;;;4.90;70.00;;;;;;4925790;28;117533;-90
2021/01/15 06:35:01;;;;;;;;;;;4.90;70.10;;;;;;4925533;28;116906;-90
2021/01/15 06:37:33;;;;;;;;;;;4.80;70.70;;;;;;4941861;28;116533;-90
2021/01/15 06:40:06;;;;;;;;;;;4.80;70.00;;;;;;4940865;28;116807;-90
2021/01/15 06:42:34;;;;;;;;;;;4.80;70.00;;;;;;4925931;28;117667;-90
2021/01/15 06:45:12;;;;;;;;;;;4.80;69.90;;;;;;4941248;28;117100;-90
2021/01/15 06:47:39;;;;;;;;;;;4.80;70.10;;;;;;4925410;28;117368;-90
2021/01/15 06:50:05;;;;;;;;;;;4.80;70.20;;;;;;4926531;28;116803;-90
2021/01/15 06:52:32;;;;;;;;;;;4.80;70.90;;;;;;4925360;28;117300;-90
2021/01/15 06:54:59;;;;;;;;;;;4.80;70.70;;;;;;4925360;28;116934;-90
2021/01/15 06:57:26;;;;;;;;;;;4.80;70.00;;;;;;4925761;28;117746;-90
2021/01/15 06:59:57;;;;;;;;;;;4.80;70.30;;;;;;4942362;28;117778;-90
2021/01/15 07:02:23;;;;;;;;;;;4.80;70.10;;;;;;4925595;28;117579;-90
2021/01/15 07:05:02;;;;;;;;;;;4.80;70.00;;;;;;4925345;28;116957;-90
2021/01/15 07:07:34;;;;;;;;;;;4.80;70.10;;;;;;4925466;28;116902;-90
2021/01/15 07:10:01;;;;;;;;;;;4.80;70.00;;;;;;4942535;28;116849;-90
2021/01/15 07:12:27;;;;;;;;;;;4.80;70.10;;;;;;4925143;28;117654;-90
2021/01/15 07:15:00;;;;;;;;;;;4.90;70.00;;;;;;4925321;28;117225;-90
2021/01/15 07:17:26;;;;;;;;;;;4.80;69.90;;;;;;4925603;28;117568;-90
2021/01/15 07:19:56;;;;;;;;;;;4.80;70.00;;;;;;4926224;28;116971;-90
2021/01/15 07:22:22;;;;;;;;;;;4.80;70.10;;;;;;4924850;28;117569;-90
2021/01/15 07:24:49;;;;;;;;;;;4.80;70.00;;;;;;4924385;28;117112;-90
2021/01/15 07:27:15;;;;;;;;;;;4.80;70.00;;;;;;4925431;28;116788;-90
2021/01/15 07:29:48;;;;;;;;;;;4.80;69.80;;;;;;4926122;28;117810;-90
2021/01/15 07:32:27;;;;;;;;;;;4.80;69.90;;;;;;4924002;28;117910;-90
2021/01/15 07:34:55;;;;;;;;;;;4.80;69.90;;;;;;4924825;28;116770;-90
2021/01/15 07:37:28;;;;;;;;;;;4.80;69.90;;;;;;4925116;28;116625;-90
2021/01/15 07:40:16;;;;;;;;;;;4.80;70.00;;;;;;4925896;28;117519;-90
2021/01/15 07:42:51;;;;;;;;;;;4.80;69.90;;;;;;4925858;28;117663;-90
2021/01/15 07:45:25;;;;;;;;;;;4.80;69.90;;;;;;4924422;28;117428;-90
2021/01/15 07:58:01;;;;;;;;;;;4.80;70.00;;;;;;4924982;28;116494;-90
2021/01/15 08:01:05;;;;;;;;;;;4.80;69.90;;;;;;4913767;28;117560;-90
2021/01/15 08:04:11;;;;;;;;;;;4.80;69.80;;;;;;4943401;28;117176;-90
2021/01/15 08:06:43;;;;;;;;;;;4.80;69.80;;;;;;4941699;28;117882;-90
2021/01/15 08:09:10;;;;;;;;;;;4.80;69.80;;;;;;4872771;28;116958;-90
2021/01/15 08:11:36;;;;;;;;;;;4.80;69.90;;;;;;4924965;28;116710;-90
2021/01/15 08:14:09;;;;;;;;;;;4.80;69.90;;;;;;4925451;28;116902;-90
2021/01/15 08:16:36;;;;;;;;;;;4.80;69.90;;;;;;4923885;28;117632;-90
2021/01/15 08:19:01;;;;;;;;;;;4.80;69.90;;;;;;4924477;28;116924;-90
2021/01/15 08:21:27;;;;;;;;;;;4.80;70.00;;;;;;4924644;28;117406;-90
2021/01/15 08:24:01;;;;;;;;;;;4.80;69.90;;;;;;4925293;28;116833;-90
2021/01/15 08:29:30;;;;;;;;;;;4.80;69.90;;;;;;4922448;28;116708;-90
2021/01/15 08:31:59;;;;;;;;;;;4.70;69.90;;;;;;4924350;28;116954;-90
2021/01/15 08:34:31;;;;;;;;;;;4.80;69.90;;;;;;4923892;28;116875;-90
2021/01/15 08:36:57;;;;;;;;;;;4.80;69.80;;;;;;4923638;28;117847;-90
2021/01/15 08:39:32;;;;;;;;;;;4.80;70.00;;;;;;4923752;28;119452;-90
2021/01/15 08:41:58;;;;;;;;;;;4.80;69.90;;;;;;4924598;28;116654;-90
2021/01/15 08:44:24;;;;;;;;;;;4.80;69.80;;;;;;4924958;28;117508;-90
2021/01/15 08:46:50;;;;;;;;;;;4.80;69.70;;;;;;4923692;28;120066;-91
2021/01/15 08:49:18;;;;;;;;;;;4.80;69.80;;;;;;4923633;28;120171;-90
2021/01/15 08:51:48;;;;;;;;;;;4.80;69.90;;;;;;4924420;28;116731;-90
2021/01/15 08:54:14;;;;;;;;;;;4.80;69.90;;;;;;4924337;28;117024;-90
2021/01/15 08:56:43;;;;;;;;;;;4.80;69.90;;;;;;4923201;28;120299;-90
2021/01/15 08:59:09;;;;;;;;;;;4.80;69.90;;;;;;4923313;28;117368;-90
2021/01/15 09:01:36;;;;;;;;;;;4.80;69.90;;;;;;4924071;28;116658;-90
2021/01/15 09:04:05;;;;;;;;;;;4.80;69.90;;;;;;4924697;28;117925;-90
2021/01/15 09:06:31;;;;;;;;;;;4.80;70.00;;;;;;4922822;28;117786;-90
2021/01/15 09:08:57;;;;;;;;;;;4.80;70.10;;;;;;4923144;28;120831;-90
2021/01/15 09:11:26;;;;;;;;;;;4.80;69.90;;;;;;4924225;28;117315;-90
2021/01/15 09:13:52;;;;;;;;;;;4.80;70.00;;;;;;4924563;28;116857;-90
2021/01/15 09:16:18;;;;;;;;;;;4.80;69.90;;;;;;4923300;28;118940;-90
2021/01/15 09:18:44;;;;;;;;;;;4.80;69.90;;;;;;4923083;28;116946;-90
2021/01/15 09:21:09;;;;;;;;;;;4.80;69.90;;;;;;4923890;28;117371;-90
2021/01/15 09:23:35;;;;;;;;;;;4.80;70.00;;;;;;4924429;28;117395;-90
2021/01/15 09:26:00;;;;;;;;;;;4.80;69.90;;;;;;4923276;28;119355;-90
2021/01/15 09:28:26;;;;;;;;;;;4.80;69.80;;;;;;4923212;28;116906;-90
2021/01/15 09:30:52;;;;;;;;;;;4.80;69.90;;;;;;4923878;28;117228;-90
2021/01/15 09:33:17;;;;;;;;;;;4.80;69.70;;;;;;4924407;28;116863;-90
2021/01/15 09:35:43;;;;;;;;;;;4.90;69.90;;;;;;4922981;28;119306;-90
2021/01/15 09:38:08;;;;;;;;;;;4.80;69.70;;;;;;4922601;28;116975;-90
2021/01/15 09:40:34;;;;;;;;;;;4.90;69.90;;;;;;4923917;28;116626;-90
2021/01/15 09:43:01;;;;;;;;;;;4.90;69.70;;;;;;4924180;28;116974;-90
2021/01/15 09:45:26;;;;;;;;;;;4.90;69.90;;;;;;4923147;28;117630;-90
2021/01/15 09:47:52;;;;;;;;;;;4.90;69.70;;;;;;4922628;28;117469;-90
2021/01/15 09:50:18;;;;;;;;;;;4.90;69.80;;;;;;4923455;28;117379;-90
2021/01/15 09:52:47;;;;;;;;;;;4.90;69.70;;;;;;4924249;28;116900;-90
2021/01/15 09:55:13;;;;;;;;;;;4.90;69.70;;;;;;4923471;28;120375;-90
2021/01/15 09:57:43;;;;;;;;;;;4.90;69.60;;;;;;4926047;28;118037;-90
2021/01/15 10:00:10;;;;;;;;;;;4.90;69.70;;;;;;4927321;28;117567;-90
2021/01/15 10:02:36;;;;;;;;;;;4.90;69.60;;;;;;4927245;28;117876;-90
2021/01/15 10:05:01;;;;;;;;;;;4.90;69.60;;;;;;4926432;28;119683;-90
2021/01/15 10:07:27;;;;;;;;;;;4.90;69.60;;;;;;4925608;28;118475;-90
2021/01/15 10:09:53;;;;;;;;;;;4.90;69.60;;;;;;4926764;28;117274;-90
2021/01/15 10:12:18;;;;;;;;;;;4.90;69.60;;;;;;4927177;28;116914;-91
2021/01/15 10:14:44;;;;;;;;;;;4.90;69.60;;;;;;4926334;28;117437;-90
2021/01/15 10:17:10;;;;;;;;;;;4.90;69.80;;;;;;4925675;28;117000;-90
2021/01/15 10:19:35;;;;;;;;;;;4.90;69.70;;;;;;4926578;28;116721;-90
2021/01/15 10:22:01;;;;;;;;;;;4.80;69.60;;;;;;4927314;28;116973;-90
2021/01/15 10:24:26;;;;;;;;;;;4.90;69.80;;;;;;4925891;28;119607;-90
2021/01/15 10:26:52;;;;;;;;;;;4.80;69.70;;;;;;4925534;28;116616;-90
2021/01/15 10:29:17;;;;;;;;;;;4.80;69.70;;;;;;4926542;28;116662;-90
2021/01/15 10:31:44;;;;;;;;;;;4.80;69.80;;;;;;4927076;28;117532;-90
2021/01/15 10:34:09;;;;;;;;;;;4.80;69.80;;;;;;4925763;28;117629;-90
2021/01/15 10:36:35;;;;;;;;;;;4.80;69.70;;;;;;4925331;28;118589;-91
2021/01/15 10:39:01;;;;;;;;;;;4.80;69.80;;;;;;4926213;28;117324;-90
2021/01/15 10:41:30;;;;;;;;;;;4.80;69.80;;;;;;4926833;28;117308;-90
2021/01/15 10:43:55;;;;;;;;;;;4.80;69.90;;;;;;4925735;28;117520;-90
2021/01/15 10:46:36;;;;;;;;;;;4.80;69.80;;;;;;4925288;28;117796;-91
2021/01/15 10:49:02;;;;;;;;;;;4.80;69.90;;;;;;4926360;28;116903;-91
2021/01/15 10:51:28;;;;;;;;;;;4.80;69.90;;;;;;4942991;28;116850;-91
2021/01/15 10:53:56;;;;;;;;;;;4.80;69.90;;;;;;4925527;28;119521;-91
2021/01/15 10:56:22;;;;;;;;;;;4.80;69.80;;;;;;4925387;28;120197;-89
2021/01/15 10:58:47;;;;;;;;;;;4.80;69.80;;;;;;4925876;28;116881;-89
2021/01/15 11:01:32;;;;;;;;;;;4.80;70.00;;;;;;4926312;28;117469;-90
2021/01/15 11:04:01;;;;;;;;;;;4.80;69.90;;;;;;4925224;28;119489;-91
2021/01/15 11:06:26;;;;;;;;;;;4.80;69.90;;;;;;4924854;28;117695;-90
2021/01/15 11:08:54;;;;;;;;;;;4.80;69.90;;;;;;4926263;28;116622;-91
2021/01/15 11:11:20;;;;;;;;;;;4.80;69.90;;;;;;4926609;28;116905;-92
2021/01/15 11:13:46;;;;;;;;;;;4.80;69.90;;;;;;4925144;28;120221;-90
2021/01/15 11:16:21;;;;;;;;;;;4.80;69.90;;;;;;4924829;28;117405;-90
2021/01/15 11:19:04;;;;;;;;;;;4.80;70.00;;;;;;4923977;28;116834;-90
2021/01/15 11:21:36;;;;;;;;;;;4.80;69.90;;;;;;4926348;28;117420;-89
2021/01/15 11:24:20;;;;;;;;;;;4.80;70.00;;;;;;4924931;28;118606;-91
2021/01/15 11:26:46;;;;;;;;;;;4.80;69.90;;;;;;4925097;28;116913;-88
2021/01/15 11:29:12;;;;;;;;;;;4.80;70.00;;;;;;4925573;28;117378;-89
2021/01/15 11:31:38;;;;;;;;;;;4.80;70.00;;;;;;4926173;28;116881;-91
2021/01/15 11:34:04;;;;;;;;;;;4.80;69.90;;;;;;4924946;28;121013;-90
2021/01/15 11:36:30;;;;;;;;;;;4.80;69.90;;;;;;4924798;28;118875;-90
2021/01/15 11:39:09;;;;;;;;;;;4.80;69.90;;;;;;4925261;28;116743;-90
2021/01/15 11:41:34;;;;;;;;;;;4.80;70.00;;;;;;4926210;28;117289;-90
2021/01/15 11:44:00;;;;;;;;;;;4.80;69.90;;;;;;4924680;28;119700;-90
2021/01/15 11:46:26;;;;;;;;;;;4.80;69.90;;;;;;4940393;28;117480;-89
2021/01/15 11:48:51;;;;;;;;;;;4.80;70.00;;;;;;4925066;28;116921;-90
2021/01/15 11:51:17;;;;;;;;;;;4.80;69.90;;;;;;4925566;28;117884;-91
2021/01/15 11:53:43;;;;;;;;;;;4.80;69.80;;;;;;4924488;28;120418;-90
2021/01/15 11:56:08;;;;;;;;;;;4.80;69.80;;;;;;4924280;28;117461;-89
2021/01/15 11:58:34;;;;;;;;;;;4.80;69.90;;;;;;4925102;28;116757;-90
2021/01/15 12:01:00;;;;;;;;;;;4.80;69.90;;;;;;4925616;28;116918;-90
2021/01/15 12:03:26;;;;;;;;;;;4.80;69.80;;;;;;4933806;28;117698;-90
2021/01/15 12:05:52;;;;;;;;;;;4.80;69.90;;;;;;4923999;28;117536;-90
2021/01/15 12:08:19;;;;;;;;;;;4.80;69.90;;;;;;4925135;28;116660;-90
2021/01/15 12:10:45;;;;;;;;;;;4.80;69.80;;;;;;4925409;28;116892;-90
2021/01/15 12:13:10;;;;;;;;;;;4.80;69.80;;;;;;4924510;28;117628;-90
2021/01/15 12:15:36;;;;;;;;;;;4.80;69.90;;;;;;4924105;28;117234;-90
2021/01/15 12:18:02;;;;;;;;;;;4.80;69.90;;;;;;4924032;28;117528;-90
2021/01/15 12:20:27;;;;;;;;;;;4.80;69.90;;;;;;4925492;28;116894;-90
2021/01/15 12:22:53;;;;;;;;;;;4.80;69.90;;;;;;4924311;28;117528;-90
2021/01/15 12:25:18;;;;;;;;;;;4.80;69.90;;;;;;4924302;28;118655;-90
2021/01/15 12:27:47;;;;;;;;;;;4.80;69.90;;;;;;4924468;28;117324;-90
2021/01/15 12:30:13;;;;;;;;;;;4.80;69.90;;;;;;4925234;28;117460;-90
2021/01/15 12:32:39;;;;;;;;;;;4.80;69.80;;;;;;4924055;28;119511;-90
2021/01/15 12:35:05;;;;;;;;;;;4.80;69.90;;;;;;4923790;28;118358;-90
2021/01/15 12:37:30;;;;;;;;;;;4.80;69.80;;;;;;4924538;28;116762;-90
2021/01/15 12:39:56;;;;;;;;;;;4.80;69.90;;;;;;4925108;28;117392;-90
2021/01/15 12:42:21;;;;;;;;;;;4.80;69.90;;;;;;4923889;28;119240;-90
2021/01/15 12:44:47;;;;;;;;;;;4.80;70.00;;;;;;4925650;28;116500;-88
2021/01/15 12:47:13;;;;;;;;;;;4.80;69.90;;;;;;4924391;28;116809;-90
2021/01/15 12:49:39;;;;;;;;;;;4.80;69.90;;;;;;4925331;28;117291;-91
2021/01/15 12:52:04;;;;;;;;;;;4.80;69.90;;;;;;4923903;28;117512;-91
2021/01/15 12:54:30;;;;;;;;;;;4.80;70.00;;;;;;4923850;28;116772;-91
2021/01/15 12:56:56;;;;;;;;;;;4.80;69.90;;;;;;4924493;28;116606;-91
2021/01/15 12:59:27;;;;;;;;;;;4.80;69.90;;;;;;4924807;28;116966;-91
2021/01/15 13:01:59;;;;;;;;;;;4.80;69.90;;;;;;4923595;28;117818;-92
2021/01/15 13:04:28;;;;;;;;;;;4.80;69.80;;;;;;4923514;28;119532;-91
2021/01/15 13:06:53;;;;;;;;;;;4.80;69.90;;;;;;4923549;28;116823;-91
2021/01/15 13:09:19;;;;;;;;;;;4.80;69.80;;;;;;4924960;28;116926;-91
2021/01/15 13:11:45;;;;;;;;;;;4.80;69.90;;;;;;4923557;28;117289;-91
2021/01/15 13:14:10;;;;;;;;;;;4.80;69.90;;;;;;4923490;28;118643;-91
2021/01/15 13:16:36;;;;;;;;;;;4.80;69.90;;;;;;4924041;28;116579;-91
2021/01/15 13:19:02;;;;;;;;;;;4.80;69.90;;;;;;4924604;28;116939;-91
2021/01/15 13:21:27;;;;;;;;;;;4.80;69.90;;;;;;4923487;28;120374;-91
2021/01/15 13:23:53;;;;;;;;;;;4.80;69.90;;;;;;4923993;28;118747;-92
2021/01/15 13:26:19;;;;;;;;;;;4.80;69.90;;;;;;4923749;28;116874;-91
2021/01/15 13:28:48;;;;;;;;;;;4.80;70.00;;;;;;4924014;28;116836;-91
2021/01/15 13:31:13;;;;;;;;;;;4.80;69.90;;;;;;4922205;28;120220;-91
2021/01/15 13:33:42;;;;;;;;;;;4.80;70.00;;;;;;4923270;28;117562;-91
2021/01/15 13:36:08;;;;;;;;;;;4.80;69.90;;;;;;4923453;28;117824;-90
2021/01/15 13:38:37;;;;;;;;;;;4.80;69.90;;;;;;4924084;28;117504;-91
2021/01/15 13:41:08;;;;;;;;;;;4.80;69.90;;;;;;4923033;28;117825;-93
2021/01/15 13:43:37;;;;;;;;;;;4.80;69.90;;;;;;4923168;28;119018;-92
2021/01/15 13:46:03;;;;;;;;;;;4.80;70.50;;;;;;4923897;28;116828;-89
2021/01/15 13:48:38;;;;;;;;;;;4.80;70.00;;;;;;4924325;28;117324;-93
2021/01/15 13:51:16;;;;;;;;;;;4.80;69.90;;;;;;4923137;28;118084;-91
2021/01/15 13:53:45;;;;;;;;;;;4.80;69.80;;;;;;4922820;28;121551;-91
2021/01/15 13:56:10;;;;;;;;;;;4.80;69.90;;;;;;4923530;28;117480;-91
2021/01/15 13:58:38;;;;;;;;;;;4.80;69.90;;;;;;4924537;28;116935;-92
2021/01/15 14:01:03;;;;;;;;;;;4.80;69.90;;;;;;4922794;28;120329;-90
2021/01/15 14:03:29;;;;;;;;;;;4.80;69.80;;;;;;4922550;28;118968;-91
2021/01/15 14:05:54;;;;;;;;;;;4.80;69.80;;;;;;4922417;28;117678;-91
2021/01/15 14:08:20;;;;;;;;;;;4.80;69.70;;;;;;4924040;28;116818;-91
2021/01/15 14:10:46;;;;;;;;;;;4.80;69.80;;;;;;4922691;28;120418;-90
2021/01/15 14:13:11;;;;;;;;;;;4.80;70.40;;;;;;4922578;28;118928;-90
2021/01/15 14:15:37;;;;;;;;;;;4.80;69.80;;;;;;4923112;28;117478;-90
2021/01/15 14:18:03;;;;;;;;;;;4.80;69.90;;;;;;4923179;28;117710;-91
2021/01/15 14:20:28;;;;;;;;;;;4.80;69.80;;;;;;4922345;28;121415;-91
2021/01/15 14:22:54;;;;;;;;;;;4.80;69.80;;;;;;4922554;28;119089;-90
2021/01/15 14:25:20;;;;;;;;;;;4.80;69.80;;;;;;4923109;28;117525;-91
2021/01/15 14:27:46;;;;;;;;;;;4.80;69.70;;;;;;4923619;28;117369;-90
2021/01/15 14:30:12;;;;;;;;;;;4.80;69.80;;;;;;4922407;28;121109;-90
2021/01/15 14:32:43;;;;;;;;;;;4.80;69.90;;;;;;4922176;28;119466;-90
2021/01/15 14:35:09;;;;;;;;;;;4.80;69.80;;;;;;4923222;28;117446;-91
2021/01/15 14:37:34;;;;;;;;;;;4.80;69.90;;;;;;4923185;28;117739;-90
2021/01/15 14:40:00;;;;;;;;;;;4.80;70.00;;;;;;4921666;28;120068;-90
2021/01/15 14:42:26;;;;;;;;;;;4.80;69.90;;;;;;4924207;28;119551;-90
2021/01/15 14:44:51;;;;;;;;;;;4.80;70.50;;;;;;4926286;28;117472;-91
2021/01/15 14:47:17;;;;;;;;;;;4.80;70.40;;;;;;4926601;28;117800;-90
2021/01/15 14:49:43;;;;;;;;;;;4.80;69.90;;;;;;4925346;28;119973;-90
2021/01/15 14:52:08;;;;;;;;;;;4.80;69.90;;;;;;4925398;28;120218;-90
2021/01/15 14:54:34;;;;;;;;;;;4.80;69.90;;;;;;4925974;28;117404;-90
2021/01/15 14:57:03;;;;;;;;;;;4.80;69.90;;;;;;4926218;28;117402;-90
2021/01/15 14:59:28;;;;;;;;;;;4.80;69.90;;;;;;4925260;28;120984;-90
2021/01/15 15:01:54;;;;;;;;;;;4.80;70.00;;;;;;4925375;28;119510;-90
2021/01/15 15:04:20;;;;;;;;;;;4.80;70.00;;;;;;4925764;28;117588;-90
2021/01/15 15:06:46;;;;;;;;;;;4.80;69.90;;;;;;4925567;28;117875;-90
2021/01/15 15:09:11;;;;;;;;;;;4.80;70.00;;;;;;4925231;28;120199;-90
2021/01/15 15:11:37;;;;;;;;;;;4.80;69.90;;;;;;4925175;28;119621;-90
2021/01/15 15:14:03;;;;;;;;;;;4.80;70.00;;;;;;4925614;28;117270;-90
2021/01/15 15:16:29;;;;;;;;;;;4.80;70.00;;;;;;4926116;28;117246;-90
2021/01/15 15:18:54;;;;;;;;;;;4.80;70.00;;;;;;4925048;28;121014;-90
2021/01/15 15:21:20;;;;;;;;;;;4.80;70.00;;;;;;4924905;28;119329;-90
2021/01/15 15:23:45;;;;;;;;;;;4.80;70.00;;;;;;4925808;28;117552;-90
2021/01/15 15:26:11;;;;;;;;;;;4.80;70.00;;;;;;4925893;28;117914;-90
2021/01/15 15:28:37;;;;;;;;;;;4.80;70.00;;;;;;4924685;28;119959;-90
2021/01/15 15:31:05;;;;;;;;;;;4.80;70.00;;;;;;4924805;28;119907;-91
2021/01/15 15:33:34;;;;;;;;;;;4.80;70.00;;;;;;4925393;28;117313;-91
2021/01/15 15:36:00;;;;;;;;;;;4.80;70.00;;;;;;4925917;28;116928;-91
2021/01/15 15:38:25;;;;;;;;;;;4.80;70.00;;;;;;4924655;28;120162;-91
2021/01/15 15:40:51;;;;;;;;;;;4.80;70.10;;;;;;4924777;28;119389;-91
2021/01/15 15:43:21;;;;;;;;;;;4.80;70.00;;;;;;4925227;28;117538;-91
2021/01/15 15:45:50;;;;;;;;;;;4.80;70.00;;;;;;4925845;28;117256;-91
2021/01/15 15:48:19;;;;;;;;;;;4.80;70.10;;;;;;4924998;28;117628;-92
2021/01/15 15:50:45;;;;;;;;;;;4.80;70.10;;;;;;4924826;28;119186;-92
2021/01/15 15:53:10;;;;;;;;;;;4.80;70.00;;;;;;4924258;28;116936;-92
2021/01/15 15:55:36;;;;;;;;;;;4.80;70.20;;;;;;4925823;28;116840;-92
2021/01/15 15:58:01;;;;;;;;;;;4.80;70.20;;;;;;4924529;28;119849;-92
2021/01/15 16:00:27;;;;;;;;;;;4.80;70.10;;;;;;4924490;28;119408;-92
2021/01/15 16:02:53;;;;;;;;;;;4.80;70.10;;;;;;4925099;28;117293;-92
2021/01/15 16:05:19;;;;;;;;;;;4.80;70.10;;;;;;4925903;28;117253;-92
2021/01/15 16:07:44;;;;;;;;;;;4.80;70.10;;;;;;4923834;28;120132;-92
2021/01/15 16:10:10;;;;;;;;;;;4.80;70.00;;;;;;4924417;28;119440;-92
2021/01/15 16:12:36;;;;;;;;;;;4.80;70.10;;;;;;4925253;28;116593;-92
2021/01/15 16:15:05;;;;;;;;;;;4.80;70.00;;;;;;4925701;28;116956;-92
2021/01/15 16:17:36;;;;;;;;;;;4.80;70.00;;;;;;4923893;28;120770;-92
2021/01/15 16:20:03;;;;;;;;;;;4.80;70.10;;;;;;4924086;28;119253;-92
2021/01/15 16:22:29;;;;;;;;;;;4.80;70.10;;;;;;4924908;28;116653;-92
2021/01/15 16:24:55;;;;;;;;;;;4.80;70.10;;;;;;4925694;28;116920;-92
2021/01/15 16:27:21;;;;;;;;;;;4.80;70.00;;;;;;4924028;28;119931;-92
2021/01/15 16:29:47;;;;;;;;;;;4.80;70.10;;;;;;4924200;28;119421;-92
2021/01/15 16:32:13;;;;;;;;;;;4.80;70.10;;;;;;4924654;28;116590;-92
2021/01/15 16:34:38;;;;;;;;;;;4.80;70.10;;;;;;4925211;28;116767;-92
2021/01/15 16:37:04;;;;;;;;;;;4.80;70.10;;;;;;4940347;28;118524;-92
2021/01/15 16:39:29;;;;;;;;;;;4.80;70.20;;;;;;4923862;28;119366;-92
2021/01/15 16:41:59;;;;;;;;;;;4.80;70.20;;;;;;4924805;28;117223;-92
2021/01/15 16:44:24;;;;;;;;;;;4.80;70.20;;;;;;4924969;28;116876;-92
2021/01/15 16:46:50;;;;;;;;;;;4.80;70.20;;;;;;4923561;28;120121;-92
2021/01/15 16:49:15;;;;;;;;;;;4.80;70.20;;;;;;4923721;28;119097;-92
2021/01/15 16:51:41;;;;;;;;;;;4.80;70.10;;;;;;4924463;28;117633;-92
2021/01/15 16:54:06;;;;;;;;;;;4.80;70.20;;;;;;4924868;28;117002;-93
2021/01/15 16:56:32;;;;;;;;;;;4.80;70.20;;;;;;4923580;28;120153;-92
2021/01/15 16:58:58;;;;;;;;;;;4.80;70.30;;;;;;4923810;28;118926;-92
2021/01/15 17:01:23;;;;;;;;;;;4.80;70.10;;;;;;4924505;28;116547;-92
2021/01/15 17:03:49;;;;;;;;;;;4.80;70.10;;;;;;4924671;28;116824;-92
2021/01/15 17:06:15;;;;;;;;;;;4.80;70.20;;;;;;4922879;28;120077;-92
2021/01/15 17:08:40;;;;;;;;;;;4.80;70.20;;;;;;4923383;28;119477;-92
2021/01/15 17:11:06;;;;;;;;;;;4.80;70.10;;;;;;4924135;28;116676;-92
2021/01/15 17:13:31;;;;;;;;;;;4.80;70.20;;;;;;4924714;28;116934;-92
2021/01/15 17:15:57;;;;;;;;;;;4.80;70.20;;;;;;4923173;28;119665;-92
2021/01/15 17:18:23;;;;;;;;;;;4.80;70.20;;;;;;4923452;28;119563;-92
2021/01/15 17:21:01;;;;;;;;;;;4.80;70.20;;;;;;4924143;28;116620;-91
2021/01/15 17:23:26;;;;;;;;;;;4.80;70.10;;;;;;4924464;28;117213;-91
2021/01/15 17:25:53;;;;;;;;;;;4.80;70.20;;;;;;4923268;28;120403;-92
2021/01/15 17:28:18;;;;;;;;;;;4.80;70.20;;;;;;4923081;28;119029;-91
2021/01/15 17:30:44;;;;;;;;;;;4.80;70.30;;;;;;4923604;28;117270;-91
2021/01/15 17:33:09;;;;;;;;;;;4.80;70.30;;;;;;4924036;28;117339;-91
2021/01/15 17:35:37;;;;;;;;;;;4.80;70.20;;;;;;4923124;28;120206;-91
2021/01/15 17:38:02;;;;;;;;;;;4.80;70.30;;;;;;4922471;28;120434;-91
2021/01/15 17:40:29;;;;;;;;;;;4.90;70.30;;;;;;4923366;28;117518;-91
2021/01/15 17:42:55;;;;;;;;;;;4.90;70.30;;;;;;4924223;28;117459;-91